ADDS METAR Data INFO
IDs: Format: Raw Decoded Include TAF

Data at: 0709 UTC 19 Oct 2017

KLXN 190655Z AUTO 00000KT 10SM CLR 04/02 A3009 RMK AO2 T00410020
KLXN 190635Z AUTO 00000KT 10SM CLR 04/02 A3010 RMK AO2 T00400020
KLXN 190615Z AUTO 32005KT 10SM CLR 04/02 A3010 RMK AO2 T00390019
KLXN 190555Z AUTO 29006KT 10SM CLR 04/02 A3009 RMK AO2 T00430022 10173 20035 402370035
KLXN 190535Z AUTO 00000KT 10SM CLR 05/02 A3009 RMK AO2 T00530023
KLXN 190515Z AUTO 00000KT 10SM CLR 05/02 A3009 RMK AO2 T00480023
KLXN 190455Z AUTO 00000KT 10SM CLR 05/03 A3010 RMK AO2 T00500025
KLXN 190435Z AUTO 31003KT 10SM CLR 06/03 A3010 RMK AO2 T00550030
KLXN 190415Z AUTO 31004KT 10SM CLR 05/02 A3011 RMK AO2 T00520024
KLXN 190355Z AUTO 29003KT 10SM CLR 06/03 A3010 RMK AO2 T00620030
KLXN 190335Z AUTO 28004KT 10SM CLR 06/03 A3011 RMK AO2 T00640026
KLXN 190315Z AUTO 31003KT 10SM CLR 07/03 A3011 RMK AO2 T00690030
KLXN 190255Z AUTO 30005KT 7SM CLR 07/03 A3011 RMK AO2 T00710032
KLXN 190235Z AUTO 29004KT 10SM CLR 08/03 A3010 RMK AO2 T00770030
KLXN 190215Z AUTO 32003KT 10SM CLR 09/04 A3010 RMK AO2 T00870035
KLXN 190155Z AUTO 00000KT 10SM CLR 10/03 A3010 RMK AO2 T00950034
KLXN 190135Z AUTO 00000KT 10SM CLR 10/04 A3010 RMK AO2 T01030035
KLXN 190115Z AUTO 35003KT 7SM CLR 11/04 A3010 RMK AO2 T01130036
KLXN 190055Z AUTO 02004KT 7SM CLR 13/04 A3009 RMK AO2 T01310035
KLXN 190035Z AUTO 01005KT 10SM CLR 14/03 A3008 RMK AO2 T01410030
KLXN 190015Z AUTO 02004KT 10SM CLR 16/02 A3008 RMK AO2 T01580020
KLXN 182355Z AUTO 02005KT 10SM CLR 17/02 A3007 RMK AO2 T01740020 10237 20172
KLXN 182335Z AUTO 05006KT 10SM CLR 18/03 A3007 RMK AO2 T01820028
KLXN 182315Z AUTO 05009KT 10SM CLR 20/03 A3006 RMK AO2 T01960026
KLXN 182255Z AUTO 05009KT 10SM CLR 20/03 A3005 RMK AO2 T02040025
KLXN 182235Z AUTO 05013G17KT 10SM CLR 21/02 A3004 RMK AO2 T02120022
KLXN 182215Z AUTO 04011KT 10SM CLR 22/02 A3004 RMK AO2 T02180023
KLXN 182155Z AUTO 04013G17KT 10SM CLR 22/02 A3004 RMK AO2 T02220021
KLXN 182135Z AUTO 03011KT 10SM CLR 23/02 A3003 RMK AO2 T02260024
KLXN 182115Z AUTO 01014G21KT 10SM CLR 23/02 A3002 RMK AO2 T02280019
KLXN 182055Z AUTO 03017G21KT 10SM CLR 23/02 A3002 RMK AO2 T02340018
KLXN 182035Z AUTO 03009KT 10SM CLR 23/02 A3001 RMK AO2 T02330020
KLXN 182015Z AUTO 03014G20KT 10SM CLR 23/01 A3001 RMK AO2 T02330013
KLXN 181955Z AUTO 02017G22KT 10SM CLR 24/00 A3001 RMK AO2 T02350004
KLXN 181935Z AUTO 02019G23KT 10SM CLR 24/01 A3000 RMK AO2 T02360008
KLXN 181915Z AUTO 36016G19KT 10SM CLR 24/01 A3000 RMK AO2 T02350012
KLXN 181855Z AUTO 03016G21KT 10SM CLR 23/01 A3000 RMK AO2 T02340012
KLXN 181835Z AUTO 01016G24KT 10SM CLR 23/01 A3000 RMK AO2 T02320007
KLXN 181815Z AUTO 01015G20KT 10SM CLR 23/01 A3000 RMK AO2 T02330006
KLXN 181755Z AUTO 01012G20KT 10SM CLR 24/01 A2999 RMK AO2 T02350006 10236 20076
KLXN 181735Z AUTO 36012KT 10SM CLR 24/00 A2998 RMK AO2 T02350002
KLXN 181715Z AUTO 35015KT 10SM CLR 23/00 A2997 RMK AO2 T02321002
KLXN 181655Z AUTO 34015G20KT 10SM CLR 23/M01 A2997 RMK AO2 T02271006
KLXN 181635Z AUTO 32011KT 10SM CLR 21/02 A2995 RMK AO2 T02060022
KLXN 181615Z AUTO 31013KT 10SM CLR 19/02 A2995 RMK AO2 T01910024
KLXN 181555Z AUTO 30013G17KT 10SM CLR 17/03 A2995 RMK AO2 T01710028
KLXN 181535Z AUTO 29011KT 10SM CLR 16/03 A2995 RMK AO2 T01550026
KLXN 181515Z AUTO 29010G14KT 10SM CLR 14/03 A2993 RMK AO2 T01440029
KLXN 181455Z AUTO 30005KT 10SM CLR 13/04 A2993 RMK AO2 T01300042
KLXN 181435Z AUTO 29006KT 10SM CLR 12/04 A2993 RMK AO2 T01230040
KLXN 181415Z AUTO 24005KT 10SM CLR 11/05 A2992 RMK AO2 T01050050
KLXN 181355Z AUTO 30006KT 10SM CLR 09/05 A2993 RMK AO2 T00880046
KLXN 181335Z AUTO 26003KT 10SM CLR 09/04 A2992 RMK AO2 T00850040
KLXN 181315Z AUTO 00000KT 10SM CLR 08/04 A2990 RMK AO2 T00820035
KLXN 181255Z AUTO 22003KT 10SM CLR 08/04 A2990 RMK AO2 T00790036
KLXN 181235Z AUTO 22004KT 10SM CLR 08/03 A2990 RMK AO2 T00780034
KLXN 181215Z AUTO 22005KT 10SM CLR 08/04 A2990 RMK AO2 T00830036
KLXN 181155Z AUTO 21005KT 10SM CLR 10/04 A2990 RMK AO2 T01020036 10164 20072
KLXN 181135Z AUTO 23004KT 10SM CLR 08/04 A2991 RMK AO2 T00800037
KLXN 181115Z AUTO 26003KT 10SM CLR 09/04 A2990 RMK AO2 T00870037
KLXN 181055Z AUTO 00000KT 10SM CLR 09/04 A2990 RMK AO2 T00860036
KLXN 181035Z AUTO 00000KT 10SM CLR 08/04 A2990 RMK AO2 T00800035
KLXN 181015Z AUTO 00000KT 10SM CLR 08/04 A2990 RMK AO2 T00840035
KLXN 180955Z AUTO 00000KT 10SM CLR 11/03 A2990 RMK AO2 T01060032
KLXN 180935Z AUTO 31005KT 10SM CLR 10/04 A2991 RMK AO2 T01010035
KLXN 180915Z AUTO 25004KT 10SM CLR 13/04 A2990 RMK AO2 T01330037
KLXN 180855Z AUTO 27004KT 10SM CLR 11/04 A2991 RMK AO2 T01140037
KLXN 180835Z AUTO 28003KT 10SM CLR 14/04 A2991 RMK AO2 T01370039
KLXN 180815Z AUTO 22007KT 10SM CLR 15/04 A2991 RMK AO2 T01450040
KLXN 180755Z AUTO 22010KT 10SM CLR 15/04 A2992 RMK AO2 T01470038
KLXN 180735Z AUTO 21009KT 10SM CLR 15/04 A2992 RMK AO2 T01500037
KLXN 180715Z AUTO 22010KT 10SM CLR 15/04 A2992 RMK AO2 T01510038
KLXN 180655Z AUTO 21009KT 10SM CLR 16/04 A2992 RMK AO2 T01560036
KLXN 180635Z AUTO 22012G17KT 10SM CLR 16/04 A2992 RMK AO2 T01620038
KLXN 180615Z AUTO 22008KT 10SM CLR 16/04 A2993 RMK AO2 T01580040
KLXN 180555Z AUTO 20005KT 10SM CLR 13/03 A2993 RMK AO2 T01280033 10182 20108 402650033
KLXN 180535Z AUTO 18008KT 10SM CLR 13/03 A2993 RMK AO2 T01310031
KLXN 180515Z AUTO 17007KT 10SM CLR 14/03 A2995 RMK AO2 T01370028
KLXN 180455Z AUTO 13004KT 10SM CLR 12/03 A2996 RMK AO2 T01150028
KLXN 180435Z AUTO 11004KT 10SM CLR 13/03 A2997 RMK AO2 T01300029
KLXN 180415Z AUTO 00000KT 10SM CLR 16/02 A2997 RMK AO2 T01600018
KLXN 180355Z AUTO 13006KT 10SM CLR 13/03 A2997 RMK AO2 T01260032
KLXN 180335Z AUTO 13005KT 10SM CLR 14/03 A2997 RMK AO2 T01370028
KLXN 180315Z AUTO 14005KT 10SM CLR 15/03 A2997 RMK AO2 T01450025
KLXN 180255Z AUTO 14005KT 10SM CLR 15/03 A2997 RMK AO2 T01450027
KLXN 180235Z AUTO 14007KT 10SM CLR 15/03 A2997 RMK AO2 T01520027
KLXN 180215Z AUTO 14007KT 10SM CLR 16/03 A2998 RMK AO2 T01560026
KLXN 180155Z AUTO 14005KT 10SM CLR 15/03 A2998 RMK AO2 T01450027
KLXN 180135Z AUTO 14005KT 10SM CLR 16/03 A2998 RMK AO2 T01550025
KLXN 180115Z AUTO 14006KT 10SM CLR 17/02 A2999 RMK AO2 T01670019
KLXN 180055Z AUTO 15005KT 10SM CLR 17/02 A2999 RMK AO2 T01710020
KLXN 180035Z AUTO 17005KT 10SM CLR 17/02 A2999 RMK AO2 T01710019
KLXN 180015Z AUTO 18007KT 10SM CLR 17/02 A2998 RMK AO2 T01720022
KLXN 172355Z AUTO 17008KT 10SM CLR 18/03 A2998 RMK AO2 T01830025 10265 20183
KLXN 172335Z AUTO 17007KT 10SM CLR 21/03 A2998 RMK AO2 T02100029
KLXN 172315Z AUTO 18006KT 10SM CLR 23/04 A2999 RMK AO2 T02250035
KLXN 172255Z AUTO 19007KT 10SM CLR 25/01 A2998 RMK AO2 T02450010
KLXN 172235Z AUTO 20006KT 10SM CLR 25/01 A2999 RMK AO2 T02520009
KLXN 172215Z AUTO 20005KT 10SM CLR 26/01 A2999 RMK AO2 T02570008
KLXN 172155Z AUTO 18007KT 10SM CLR 26/02 A2999 RMK AO2 T02570015
KLXN 172135Z AUTO 17009KT 10SM CLR 26/00 A2999 RMK AO2 T02620004
KLXN 172115Z AUTO 20007KT 10SM CLR 27/00 A3000 RMK AO2 T02651005
KLXN 172055Z AUTO 19005KT 10SM CLR 26/00 A3001 RMK AO2 T02630001
KLXN 172035Z AUTO 20008KT 10SM CLR 26/01 A3002 RMK AO2 T02620013
KLXN 172015Z AUTO 22007G15KT 10SM CLR 26/02 A3004 RMK AO2 T02590021
KLXN 171955Z AUTO 24006KT 10SM CLR 26/01 A3004 RMK AO2 T02580009
KLXN 171935Z AUTO 00000KT 10SM CLR 26/01 A3005 RMK AO2 T02550006
KLXN 171915Z AUTO 00000KT 10SM CLR 25/02 A3006 RMK AO2 T02500018